This is the latest recevied weather packets stored in our database for station/object WC4PEM-1. If no packets are shown the sender has not sent any weather packets the latest 10 day(s).
| Time | Temp. | Humidity | Pressure | Rain* | Wind** | Luminosity | Snow |
|---|---|---|---|---|---|---|---|
| 1778001204 | 28.89° C | 50% | 1015.2 hPa | 0 mm | - | 1046 W/m² | - |
| 1778000904 | 28.89° C | 51% | 1015.2 hPa | 0 mm | - | 343 W/m² | - |
| 1778000604 | 29.44° C | 49% | 1015.2 hPa | 0 mm | - | 418 W/m² | - |
| 1778000481 | 28.33° C | 52% | 1015.3 hPa | 0 mm | - | 1137 W/m² | - |
| 1778000304 | 29.44° C | 49% | 1015.3 hPa | 0 mm | - | 418 W/m² | - |
| 1778000127 | 29.44° C | 50% | 1015.3 hPa | 0 mm | - | 1109 W/m² | - |
| 1778000004 | 29.44° C | 50% | 1015.3 hPa | 0 mm | - | 1109 W/m² | - |
| 1777999704 | 28.89° C | 50% | 1015.4 hPa | 0 mm | - | 1072 W/m² | - |
| 1777999404 | 28.33° C | 52% | 1015.3 hPa | 0 mm | - | 1137 W/m² | - |
| 1777999224 | 28.33° C | 53% | 1015.3 hPa | 0 mm | - | 348 W/m² | - |
| 1777999104 | 28.33° C | 53% | 1015.3 hPa | 0 mm | - | 348 W/m² | - |
| 1777998804 | 27.78° C | 52% | 1015.3 hPa | 0 mm | - | 343 W/m² | - |
| 1777998504 | 27.78° C | 51% | 1015.4 hPa | 0 mm | - | 367 W/m² | - |
| 1777998204 | 28.33° C | 51% | 1015.5 hPa | 0 mm | - | 457 W/m² | - |
| 1777997904 | 28.33° C | 53% | 1015.4 hPa | 0 mm | - | 1097 W/m² | - |
| 1777997604 | 27.22° C | 54% | 1015.4 hPa | 0 mm | - | 373 W/m² | - |
| 1777997304 | 27.78° C | 52% | 1015.4 hPa | 0 mm | - | 323 W/m² | - |
| 1777997108 | 27.78° C | 51% | 1015.4 hPa | 0 mm | - | 508 W/m² | - |
| 1777997004 | 27.78° C | 51% | 1015.4 hPa | 0 mm | - | 508 W/m² | - |
| 1777996704 | 27.78° C | 54% | 1015.4 hPa | 0 mm | - | 860 W/m² | - |
| 1777996404 | 27.22° C | 52% | 1015.6 hPa | 0 mm | - | 322 W/m² | - |
| 1777996207 | 27.22° C | 53% | 1015.5 hPa | 0 mm | - | 281 W/m² | - |
| 1777996104 | 27.22° C | 53% | 1015.5 hPa | 0 mm | - | 281 W/m² | - |
| 1777995804 | 27.22° C | 54% | 1015.5 hPa | 0 mm | - | 559 W/m² | - |
| 1777995504 | 27.22° C | 52% | 1015.6 hPa | 0 mm | - | 415 W/m² | - |
* Rain latest hour (hover to see other rain measurements)
** Current wind speed in m/s (hover to see current wind gust speed)